createdAt,value
2022-11-26T00:01:51.078Z,98.20
2022-11-26T00:03:53.367Z,98.70
2022-11-26T00:05:57.382Z,98.13
2022-11-26T00:08:00.462Z,97.98
2022-11-26T00:10:02.525Z,97.70
2022-11-26T00:12:23.400Z,97.89
2022-11-26T00:14:24.854Z,98.74
2022-11-26T00:16:27.201Z,98.34
2022-11-26T00:18:28.679Z,98.19
2022-11-26T00:20:31.710Z,98.42
2022-11-26T00:22:39.302Z,98.27
2022-11-26T00:24:40.824Z,97.77
2022-11-26T00:26:42.290Z,97.30
2022-11-26T00:28:51.161Z,98.15
2022-11-26T00:30:56.015Z,97.69
2022-11-26T00:32:58.135Z,97.74
2022-11-26T00:34:59.563Z,97.98
2022-11-26T00:37:01.450Z,98.45
2022-11-26T00:39:07.175Z,98.40
2022-11-26T00:41:18.397Z,98.29
2022-11-26T00:43:19.841Z,98.35
2022-11-26T00:45:24.707Z,98.13
2022-11-26T00:47:26.216Z,98.33
2022-11-26T00:49:28.875Z,97.56
2022-11-26T00:51:30.376Z,97.55
2022-11-26T00:53:32.077Z,95.99
2022-11-26T00:55:39.369Z,96.00
2022-11-26T00:57:40.841Z,95.74
2022-11-26T00:59:42.542Z,94.89
2022-11-26T01:01:44.029Z,94.55
2022-11-26T01:03:45.572Z,94.23
2022-11-26T01:05:55.618Z,94.07
2022-11-26T01:08:06.437Z,93.23
2022-11-26T01:10:25.023Z,93.50
2022-11-26T01:12:26.487Z,92.99
2022-11-26T01:14:27.974Z,93.31
2022-11-26T01:16:34.983Z,92.99
2022-11-26T01:18:36.551Z,92.84
2022-11-26T01:20:38.001Z,92.37
2022-11-26T01:22:39.455Z,92.16
2022-11-26T01:24:40.889Z,92.21
2022-11-26T01:26:44.390Z,91.04
2022-11-26T01:28:46.797Z,91.24
2022-11-26T01:30:48.298Z,91.18
2022-11-26T01:32:50.667Z,90.85
2022-11-26T01:34:52.110Z,91.18
2022-11-26T01:36:53.579Z,90.37
2022-11-26T01:38:57.150Z,90.65
2022-11-26T01:41:33.656Z,91.43
2022-11-26T01:43:41.212Z,92.39
2022-11-26T01:45:42.906Z,92.84
2022-11-26T01:47:48.580Z,94.07
2022-11-26T01:50:27.250Z,93.74
2022-11-26T01:52:28.780Z,94.54
2022-11-26T01:54:33.039Z,95.93
2022-11-26T01:56:58.005Z,96.12
2022-11-26T01:59:15.027Z,97.21
2022-11-26T02:01:17.947Z,97.21
2022-11-26T02:03:19.985Z,97.53
2022-11-26T02:05:25.085Z,97.38
2022-11-26T02:07:26.681Z,97.77
2022-11-26T02:09:29.891Z,97.11
2022-11-26T02:11:31.709Z,97.32
2022-11-26T02:13:33.183Z,97.70
2022-11-26T02:15:48.563Z,97.79
2022-11-26T02:17:57.775Z,97.31
2022-11-26T02:19:59.182Z,96.47
2022-11-26T02:22:19.393Z,96.18
2022-11-26T02:24:49.622Z,95.99
2022-11-26T02:26:57.097Z,95.67
2022-11-26T02:29:09.642Z,95.37
2022-11-26T02:31:23.546Z,95.24
2022-11-26T02:33:35.062Z,95.52
2022-11-26T02:35:49.132Z,95.02
2022-11-26T02:37:58.066Z,94.92
2022-11-26T02:39:59.665Z,93.81
2022-11-26T02:42:04.052Z,94.02
2022-11-26T02:44:05.525Z,93.48
2022-11-26T02:46:15.277Z,94.05
2022-11-26T02:48:22.047Z,95.27
2022-11-26T02:50:52.443Z,95.04
2022-11-26T02:52:57.017Z,95.47
2022-11-26T02:54:59.865Z,96.33
2022-11-26T02:57:05.966Z,96.68
2022-11-26T02:59:07.846Z,97.34
2022-11-26T03:01:19.320Z,97.49
2022-11-26T03:03:26.157Z,97.71
2022-11-26T03:05:31.463Z,97.96
2022-11-26T03:07:34.771Z,98.44
2022-11-26T03:09:59.046Z,99.39
2022-11-26T03:12:00.585Z,98.83
2022-11-26T03:14:02.111Z,99.04
2022-11-26T03:16:04.510Z,98.64
2022-11-26T03:18:06.057Z,99.13
2022-11-26T03:20:08.065Z,98.86
2022-11-26T03:22:09.638Z,99.07
2022-11-26T03:24:11.066Z,98.50
2022-11-26T03:26:12.770Z,98.99
2022-11-26T03:28:14.295Z,99.02
2022-11-26T03:30:15.899Z,99.36
2022-11-26T03:32:17.381Z,99.18
2022-11-26T03:34:18.873Z,99.01
2022-11-26T03:36:20.350Z,99.18
2022-11-26T03:38:21.881Z,99.21
2022-11-26T03:40:23.422Z,99.27
2022-11-26T03:42:25.046Z,99.66
2022-11-26T03:44:26.533Z,99.16
2022-11-26T03:46:27.998Z,99.93
2022-11-26T03:48:29.509Z,100.00
2022-11-26T03:50:30.959Z,99.73
2022-11-26T03:52:32.520Z,99.32
2022-11-26T03:54:33.987Z,100.00
2022-11-26T03:56:35.496Z,99.59
2022-11-26T03:58:36.995Z,99.16
2022-11-26T04:00:38.521Z,99.39
2022-11-26T04:02:40.100Z,98.77
2022-11-26T04:04:41.581Z,98.35
2022-11-26T04:06:43.072Z,98.12
2022-11-26T04:08:44.604Z,98.04
2022-11-26T04:10:46.030Z,97.50
2022-11-26T04:12:47.500Z,97.59
2022-11-26T04:14:48.937Z,97.72
2022-11-26T04:16:50.452Z,97.45
2022-11-26T04:18:51.978Z,96.49
2022-11-26T04:20:53.755Z,97.07
2022-11-26T04:22:55.291Z,97.08
2022-11-26T04:24:56.728Z,97.83
2022-11-26T04:26:58.161Z,98.26
2022-11-26T04:28:59.842Z,98.93
2022-11-26T04:31:01.405Z,98.84
2022-11-26T04:33:02.869Z,98.69
2022-11-26T04:35:04.704Z,98.76
2022-11-26T04:37:06.149Z,99.55
2022-11-26T04:39:07.634Z,99.32
2022-11-26T04:41:09.099Z,99.95
2022-11-26T04:43:10.579Z,99.55
2022-11-26T04:45:12.099Z,99.59
2022-11-26T04:47:13.571Z,100.00
2022-11-26T04:49:15.172Z,100.00
2022-11-26T04:51:16.715Z,100.00
2022-11-26T04:53:21.798Z,100.00
2022-11-26T04:55:23.301Z,100.00
2022-11-26T04:57:26.507Z,100.00
2022-11-26T04:59:28.091Z,100.00
2022-11-26T05:01:29.701Z,100.00
2022-11-26T05:03:31.313Z,100.00
2022-11-26T05:05:32.851Z,100.00
2022-11-26T05:07:34.924Z,100.00
2022-11-26T05:09:36.489Z,100.00
2022-11-26T05:11:37.978Z,100.00
2022-11-26T05:13:39.480Z,100.00
2022-11-26T05:15:41.087Z,100.00
2022-11-26T05:17:42.622Z,100.00
2022-11-26T05:19:44.092Z,100.00
2022-11-26T05:21:45.594Z,100.00
2022-11-26T05:23:47.103Z,100.00
2022-11-26T05:25:50.394Z,100.00
2022-11-26T05:27:51.893Z,100.00
2022-11-26T05:29:53.357Z,100.00
2022-11-26T05:31:54.965Z,100.00
2022-11-26T05:33:56.631Z,100.00
2022-11-26T05:35:58.243Z,100.00
2022-11-26T05:37:59.728Z,100.00
2022-11-26T05:40:01.404Z,100.00
2022-11-26T05:42:08.837Z,100.00
2022-11-26T05:44:10.730Z,100.00
2022-11-26T05:46:14.865Z,100.00
2022-11-26T05:48:16.410Z,100.00
2022-11-26T05:50:18.300Z,100.00
2022-11-26T05:52:19.822Z,100.00
2022-11-26T05:54:21.267Z,100.00
2022-11-26T05:56:22.816Z,100.00
2022-11-26T05:58:24.449Z,100.00
2022-11-26T06:00:25.995Z,100.00
2022-11-26T06:02:27.544Z,100.00
2022-11-26T06:04:29.325Z,100.00
2022-11-26T06:06:30.895Z,100.00
2022-11-26T06:08:32.435Z,100.00
2022-11-26T06:10:33.955Z,100.00
2022-11-26T06:12:35.815Z,100.00
2022-11-26T06:14:41.574Z,100.00
2022-11-26T06:16:44.521Z,100.00
2022-11-26T06:18:46.137Z,100.00
2022-11-26T06:20:47.596Z,100.00
2022-11-26T06:22:49.083Z,100.00
2022-11-26T06:24:50.530Z,100.00
2022-11-26T06:26:52.103Z,100.00
2022-11-26T06:28:53.669Z,100.00
2022-11-26T06:30:55.124Z,100.00
2022-11-26T06:32:56.562Z,100.00
2022-11-26T06:34:58.406Z,100.00
2022-11-26T06:36:59.920Z,100.00
2022-11-26T06:39:01.381Z,100.00
2022-11-26T06:41:05.900Z,100.00
2022-11-26T06:43:07.361Z,100.00
2022-11-26T06:45:09.529Z,100.00
2022-11-26T06:47:12.208Z,100.00
2022-11-26T06:49:13.666Z,100.00
2022-11-26T06:51:17.011Z,100.00
2022-11-26T06:53:19.234Z,100.00
2022-11-26T06:55:21.033Z,100.00
2022-11-26T06:57:22.536Z,100.00
2022-11-26T06:59:24.003Z,100.00
2022-11-26T07:01:26.475Z,100.00
2022-11-26T07:03:33.070Z,100.00
2022-11-26T07:05:35.715Z,100.00
2022-11-26T07:07:39.407Z,100.00
2022-11-26T07:09:41.340Z,100.00
2022-11-26T07:11:43.944Z,100.00
2022-11-26T07:13:45.449Z,100.00
2022-11-26T07:15:47.101Z,100.00
2022-11-26T07:17:48.645Z,100.00
2022-11-26T07:19:50.103Z,100.00
2022-11-26T07:21:51.560Z,100.00
2022-11-26T07:23:53.911Z,100.00
2022-11-26T07:25:58.842Z,100.00
2022-11-26T07:28:00.317Z,100.00
2022-11-26T07:30:01.970Z,100.00
2022-11-26T07:32:03.689Z,100.00
2022-11-26T07:34:05.310Z,100.00
2022-11-26T07:36:09.498Z,100.00
2022-11-26T07:38:10.938Z,100.00
2022-11-26T07:40:12.907Z,100.00
2022-11-26T07:42:14.699Z,100.00
2022-11-26T07:44:16.365Z,100.00
2022-11-26T07:46:21.575Z,100.00
2022-11-26T07:48:23.098Z,100.00
2022-11-26T07:50:24.628Z,100.00
2022-11-26T07:52:26.087Z,100.00
2022-11-26T07:54:27.585Z,100.00
2022-11-26T07:56:29.038Z,100.00
2022-11-26T07:58:30.474Z,100.00
2022-11-26T08:00:31.945Z,100.00
2022-11-26T08:02:33.474Z,100.00
2022-11-26T08:04:34.936Z,100.00
2022-11-26T08:06:36.449Z,100.00
2022-11-26T08:08:38.165Z,100.00
2022-11-26T08:10:40.015Z,100.00
2022-11-26T08:12:41.505Z,100.00
2022-11-26T08:14:42.944Z,100.00
2022-11-26T08:16:44.456Z,100.00
2022-11-26T08:18:45.984Z,100.00
2022-11-26T08:20:55.313Z,100.00
2022-11-26T08:22:57.049Z,100.00
2022-11-26T08:24:58.486Z,100.00
2022-11-26T08:26:59.940Z,100.00
2022-11-26T08:29:01.468Z,100.00
2022-11-26T08:31:05.567Z,100.00
2022-11-26T08:33:07.069Z,100.00
2022-11-26T08:35:08.652Z,100.00
2022-11-26T08:37:10.135Z,100.00
2022-11-26T08:39:18.370Z,100.00
2022-11-26T08:41:19.849Z,100.00
2022-11-26T08:43:30.920Z,100.00
2022-11-26T08:45:41.234Z,100.00
2022-11-26T08:47:42.700Z,100.00
2022-11-26T08:49:44.163Z,100.00
2022-11-26T08:51:45.719Z,100.00
2022-11-26T08:53:47.165Z,100.00
2022-11-26T08:56:00.206Z,100.00
2022-11-26T08:58:02.137Z,100.00
2022-11-26T09:00:05.316Z,100.00
2022-11-26T09:02:08.648Z,100.00
2022-11-26T09:04:11.484Z,100.00
2022-11-26T09:06:12.966Z,100.00
2022-11-26T09:08:14.416Z,100.00
2022-11-26T09:10:15.995Z,100.00
2022-11-26T09:12:18.150Z,100.00
2022-11-26T09:14:24.788Z,100.00
2022-11-26T09:16:26.978Z,100.00
2022-11-26T09:18:28.462Z,100.00
2022-11-26T09:20:30.099Z,100.00
2022-11-26T09:22:31.728Z,100.00
2022-11-26T09:24:33.254Z,100.00
2022-11-26T09:26:35.111Z,100.00
2022-11-26T09:28:36.831Z,100.00
2022-11-26T09:30:38.281Z,100.00
2022-11-26T09:32:39.851Z,100.00
2022-11-26T09:34:41.747Z,100.00
2022-11-26T09:36:43.361Z,100.00
2022-11-26T09:38:45.343Z,100.00
2022-11-26T09:40:54.030Z,100.00
2022-11-26T09:43:07.043Z,100.00
2022-11-26T09:45:46.969Z,100.00
2022-11-26T09:47:53.327Z,100.00
2022-11-26T09:50:06.624Z,100.00
2022-11-26T09:52:10.455Z,100.00
2022-11-26T09:54:18.353Z,100.00
2022-11-26T09:56:24.715Z,100.00
2022-11-26T09:59:05.575Z,100.00
2022-11-26T10:01:07.702Z,100.00
2022-11-26T10:03:15.846Z,100.00
2022-11-26T10:05:21.300Z,100.00
2022-11-26T10:07:44.408Z,100.00
2022-11-26T10:10:15.652Z,100.00
2022-11-26T10:12:31.603Z,100.00
2022-11-26T10:15:11.482Z,100.00
2022-11-26T10:17:19.026Z,100.00
2022-11-26T10:19:52.923Z,100.00
2022-11-26T10:22:00.523Z,100.00
2022-11-26T10:24:10.330Z,100.00
2022-11-26T10:26:28.900Z,100.00
2022-11-26T10:28:33.327Z,100.00
2022-11-26T10:30:35.014Z,100.00
2022-11-26T10:32:43.652Z,100.00
2022-11-26T10:34:51.756Z,100.00
2022-11-26T10:36:53.393Z,100.00
2022-11-26T10:38:56.467Z,100.00
2022-11-26T10:40:57.915Z,100.00
2022-11-26T10:43:08.532Z,100.00
2022-11-26T10:45:20.459Z,100.00
2022-11-26T10:47:31.085Z,100.00
2022-11-26T10:49:32.661Z,100.00
2022-11-26T10:51:37.642Z,100.00
2022-11-26T10:53:59.759Z,100.00
2022-11-26T10:56:05.778Z,100.00
2022-11-26T10:58:19.451Z,100.00
2022-11-26T11:00:50.170Z,100.00
2022-11-26T11:02:51.783Z,100.00
2022-11-26T11:04:56.329Z,100.00
2022-11-26T11:06:58.681Z,100.00
2022-11-26T11:09:00.173Z,100.00
2022-11-26T11:11:03.535Z,100.00
2022-11-26T11:13:13.892Z,100.00
2022-11-26T11:15:18.334Z,100.00
2022-11-26T11:17:22.788Z,100.00
2022-11-26T11:19:26.362Z,100.00
2022-11-26T11:21:34.647Z,100.00
2022-11-26T11:24:07.153Z,100.00
2022-11-26T11:26:04.644Z,100.00
2022-11-26T11:28:20.229Z,100.00
2022-11-26T11:30:30.939Z,100.00
2022-11-26T11:32:36.450Z,100.00
2022-11-26T11:34:42.445Z,100.00
2022-11-26T11:36:44.056Z,100.00
2022-11-26T11:39:04.099Z,100.00
2022-11-26T11:41:17.427Z,100.00
2022-11-26T11:43:23.077Z,100.00
2022-11-26T11:45:38.989Z,100.00
2022-11-26T11:47:43.600Z,100.00
2022-11-26T11:49:50.781Z,100.00
2022-11-26T11:52:07.335Z,100.00
2022-11-26T11:54:29.684Z,100.00
2022-11-26T11:56:38.622Z,100.00
2022-11-26T11:58:40.103Z,100.00
2022-11-26T12:01:09.011Z,100.00
2022-11-26T12:03:30.683Z,100.00
2022-11-26T12:05:50.939Z,100.00
2022-11-26T12:08:11.017Z,100.00
2022-11-26T12:10:35.178Z,100.00
2022-11-26T12:12:44.526Z,100.00
2022-11-26T12:14:50.199Z,100.00
2022-11-26T12:16:58.712Z,100.00
2022-11-26T12:19:18.078Z,100.00
2022-11-26T12:21:33.611Z,100.00
2022-11-26T12:23:44.889Z,100.00
2022-11-26T12:25:51.424Z,100.00
2022-11-26T12:28:10.628Z,100.00
2022-11-26T12:30:21.028Z,100.00
2022-11-26T12:32:36.711Z,100.00
2022-11-26T12:34:49.962Z,100.00
2022-11-26T12:37:02.281Z,100.00
2022-11-26T12:39:19.157Z,100.00
2022-11-26T12:42:04.165Z,100.00
2022-11-26T12:44:17.713Z,100.00
2022-11-26T12:46:26.532Z,100.00
2022-11-26T12:48:42.434Z,100.00
2022-11-26T12:50:53.843Z,100.00
2022-11-26T12:53:08.582Z,100.00
2022-11-26T12:55:20.633Z,100.00
2022-11-26T12:57:32.310Z,100.00
2022-11-26T12:59:40.018Z,100.00
2022-11-26T13:01:41.539Z,100.00
2022-11-26T13:03:43.239Z,100.00
2022-11-26T13:05:58.390Z,100.00
2022-11-26T13:08:08.853Z,100.00
2022-11-26T13:10:31.925Z,100.00
2022-11-26T13:12:49.808Z,100.00
2022-11-26T13:15:00.106Z,100.00
2022-11-26T13:17:12.170Z,100.00
2022-11-26T13:19:18.496Z,100.00
2022-11-26T13:22:01.157Z,100.00
2022-11-26T13:24:19.862Z,100.00
2022-11-26T13:26:21.197Z,100.00
2022-11-26T13:28:59.920Z,100.00
2022-11-26T13:31:10.397Z,100.00
2022-11-26T13:33:27.198Z,100.00
2022-11-26T13:35:46.478Z,100.00
2022-11-26T13:38:16.659Z,100.00
2022-11-26T13:40:58.698Z,100.00
2022-11-26T13:43:17.040Z,100.00
2022-11-26T13:45:30.737Z,100.00
2022-11-26T13:47:32.165Z,100.00
2022-11-26T13:49:39.831Z,100.00
2022-11-26T13:51:56.735Z,100.00
2022-11-26T13:54:19.183Z,100.00
2022-11-26T13:56:24.546Z,100.00
2022-11-26T13:58:40.922Z,100.00
2022-11-26T14:00:43.391Z,100.00
2022-11-26T14:02:46.697Z,100.00
2022-11-26T14:04:48.165Z,100.00
2022-11-26T14:07:04.920Z,100.00
2022-11-26T14:09:06.448Z,100.00
2022-11-26T14:11:09.086Z,100.00
2022-11-26T14:13:12.762Z,100.00
2022-11-26T14:15:41.868Z,100.00
2022-11-26T14:17:56.789Z,100.00
2022-11-26T14:19:58.991Z,100.00
2022-11-26T14:22:03.571Z,100.00
2022-11-26T14:24:05.147Z,100.00
2022-11-26T14:26:13.874Z,100.00
2022-11-26T14:28:15.354Z,100.00
2022-11-26T14:30:24.536Z,100.00
2022-11-26T14:32:27.938Z,100.00
2022-11-26T14:34:40.778Z,100.00
2022-11-26T14:37:00.650Z,100.00
2022-11-26T14:39:04.823Z,100.00
2022-11-26T14:41:06.300Z,100.00
2022-11-26T14:43:19.747Z,100.00
2022-11-26T14:45:24.158Z,100.00
2022-11-26T14:47:26.219Z,100.00
2022-11-26T14:49:36.551Z,100.00
2022-11-26T14:51:38.096Z,100.00
2022-11-26T14:53:47.894Z,100.00
2022-11-26T14:55:50.531Z,100.00
2022-11-26T14:57:59.339Z,100.00
2022-11-26T15:00:08.770Z,100.00
2022-11-26T15:02:24.152Z,100.00
2022-11-26T15:04:39.019Z,100.00
2022-11-26T15:06:43.218Z,100.00
2022-11-26T15:08:44.673Z,100.00
2022-11-26T15:10:51.325Z,100.00
2022-11-26T15:12:54.306Z,100.00
2022-11-26T15:14:59.022Z,100.00
2022-11-26T15:17:02.550Z,100.00
2022-11-26T15:19:06.436Z,100.00
2022-11-26T15:21:14.584Z,100.00
2022-11-26T15:23:18.887Z,100.00
2022-11-26T15:25:24.980Z,100.00
2022-11-26T15:27:28.805Z,100.00
2022-11-26T15:29:40.960Z,100.00
2022-11-26T15:31:43.029Z,100.00
2022-11-26T15:33:45.476Z,100.00
2022-11-26T15:35:50.646Z,100.00
2022-11-26T15:37:52.294Z,100.00
2022-11-26T15:40:31.575Z,100.00
2022-11-26T15:42:34.035Z,100.00
2022-11-26T15:44:42.426Z,100.00
2022-11-26T15:46:48.157Z,100.00
2022-11-26T15:48:53.214Z,100.00
2022-11-26T15:50:58.968Z,100.00
2022-11-26T15:53:14.063Z,100.00
2022-11-26T15:55:28.348Z,100.00
2022-11-26T15:57:33.438Z,100.00
2022-11-26T15:59:48.664Z,100.00
2022-11-26T16:01:50.324Z,100.00
2022-11-26T16:03:53.720Z,100.00
2022-11-26T16:05:56.196Z,100.00
2022-11-26T16:08:02.920Z,100.00
2022-11-26T16:10:35.378Z,100.00
2022-11-26T16:12:40.608Z,100.00
2022-11-26T16:14:43.204Z,100.00
2022-11-26T16:16:44.865Z,100.00
2022-11-26T16:18:46.302Z,100.00
2022-11-26T16:20:48.285Z,100.00
2022-11-26T16:22:55.580Z,100.00
2022-11-26T16:25:07.441Z,100.00
2022-11-26T16:27:17.880Z,100.00
2022-11-26T16:29:19.464Z,100.00
2022-11-26T16:31:21.604Z,100.00
2022-11-26T16:33:23.306Z,100.00
2022-11-26T16:35:45.091Z,100.00
2022-11-26T16:37:47.460Z,100.00
2022-11-26T16:39:51.397Z,100.00
2022-11-26T16:41:52.851Z,100.00
2022-11-26T16:43:54.318Z,100.00
2022-11-26T16:45:55.995Z,100.00
2022-11-26T16:47:57.491Z,100.00
2022-11-26T16:49:59.046Z,100.00
2022-11-26T16:52:00.492Z,100.00
2022-11-26T16:54:02.032Z,100.00
2022-11-26T16:56:04.082Z,100.00
2022-11-26T16:58:05.772Z,100.00
2022-11-26T17:00:14.560Z,100.00
2022-11-26T17:02:17.408Z,100.00
2022-11-26T17:04:19.315Z,100.00
2022-11-26T17:06:25.576Z,100.00
2022-11-26T17:08:28.912Z,100.00
2022-11-26T17:10:30.487Z,100.00
2022-11-26T17:12:31.959Z,100.00
2022-11-26T17:14:33.530Z,100.00
2022-11-26T17:16:35.064Z,100.00
2022-11-26T17:18:36.582Z,100.00
2022-11-26T17:20:38.092Z,100.00
2022-11-26T17:22:39.558Z,100.00
2022-11-26T17:24:41.119Z,100.00
2022-11-26T17:26:42.602Z,100.00
2022-11-26T17:28:44.126Z,100.00
2022-11-26T17:30:45.703Z,100.00
2022-11-26T17:32:47.233Z,100.00
2022-11-26T17:34:48.701Z,100.00
2022-11-26T17:36:50.162Z,100.00
2022-11-26T17:38:52.058Z,100.00
2022-11-26T17:40:53.502Z,100.00
2022-11-26T17:42:55.611Z,100.00
2022-11-26T17:44:57.079Z,100.00
2022-11-26T17:47:16.275Z,100.00
2022-11-26T17:49:18.989Z,100.00
2022-11-26T17:51:20.426Z,100.00
2022-11-26T17:53:21.991Z,100.00
2022-11-26T17:55:25.425Z,100.00
2022-11-26T17:57:28.254Z,100.00
2022-11-26T17:59:29.804Z,100.00
2022-11-26T18:01:31.415Z,100.00
2022-11-26T18:03:32.957Z,100.00
2022-11-26T18:05:37.870Z,100.00
2022-11-26T18:07:42.268Z,100.00
2022-11-26T18:09:44.414Z,100.00
2022-11-26T18:11:49.849Z,100.00
2022-11-26T18:13:51.286Z,100.00
2022-11-26T18:15:59.027Z,100.00
2022-11-26T18:18:00.764Z,100.00
2022-11-26T18:20:02.302Z,100.00
2022-11-26T18:22:03.843Z,100.00
2022-11-26T18:24:06.186Z,100.00
2022-11-26T18:26:16.343Z,100.00
2022-11-26T18:28:17.805Z,100.00
2022-11-26T18:30:19.968Z,100.00
2022-11-26T18:32:21.522Z,100.00
2022-11-26T18:34:23.286Z,100.00
2022-11-26T18:36:24.851Z,100.00
2022-11-26T18:38:29.143Z,100.00
2022-11-26T18:40:30.660Z,100.00
2022-11-26T18:42:39.265Z,100.00
2022-11-26T18:44:40.782Z,100.00
2022-11-26T18:46:42.341Z,100.00
2022-11-26T18:48:46.364Z,100.00
2022-11-26T18:50:58.845Z,100.00
2022-11-26T18:53:00.351Z,100.00
2022-11-26T18:55:04.820Z,100.00
2022-11-26T18:57:06.328Z,100.00
2022-11-26T18:59:09.523Z,100.00
2022-11-26T19:01:20.491Z,100.00
2022-11-26T19:03:22.013Z,100.00
2022-11-26T19:05:23.484Z,100.00
2022-11-26T19:07:24.977Z,100.00
2022-11-26T19:09:26.477Z,100.00
2022-11-26T19:11:28.849Z,100.00
2022-11-26T19:13:30.305Z,100.00
2022-11-26T19:15:31.814Z,100.00
2022-11-26T19:17:33.558Z,100.00
2022-11-26T19:19:35.249Z,100.00
2022-11-26T19:21:38.191Z,100.00
2022-11-26T19:23:39.694Z,100.00
2022-11-26T19:25:41.161Z,100.00
2022-11-26T19:27:43.062Z,100.00
2022-11-26T19:29:44.507Z,100.00
2022-11-26T19:31:45.993Z,100.00
2022-11-26T19:33:52.889Z,100.00
2022-11-26T19:35:55.413Z,100.00
2022-11-26T19:37:57.003Z,100.00
2022-11-26T19:39:58.516Z,100.00
2022-11-26T19:42:00.188Z,100.00
2022-11-26T19:44:03.592Z,100.00
2022-11-26T19:46:07.802Z,100.00
2022-11-26T19:48:09.257Z,100.00
2022-11-26T19:50:10.934Z,100.00
2022-11-26T19:52:12.409Z,100.00
2022-11-26T19:54:13.899Z,100.00
2022-11-26T19:56:20.868Z,100.00
2022-11-26T19:58:22.738Z,100.00
2022-11-26T20:00:24.248Z,100.00
2022-11-26T20:02:25.779Z,100.00
2022-11-26T20:04:27.646Z,100.00
2022-11-26T20:06:30.822Z,100.00
2022-11-26T20:08:33.378Z,100.00
2022-11-26T20:10:37.396Z,100.00
2022-11-26T20:12:38.901Z,100.00
2022-11-26T20:14:40.403Z,100.00
2022-11-26T20:16:43.628Z,100.00
2022-11-26T20:18:45.933Z,100.00
2022-11-26T20:21:19.781Z,100.00
2022-11-26T20:23:21.263Z,100.00
2022-11-26T20:25:22.826Z,100.00
2022-11-26T20:27:24.283Z,100.00
2022-11-26T20:29:25.751Z,100.00
2022-11-26T20:31:27.403Z,100.00
2022-11-26T20:33:28.982Z,100.00
2022-11-26T20:35:30.431Z,100.00
2022-11-26T20:37:32.300Z,100.00
2022-11-26T20:39:33.910Z,100.00
2022-11-26T20:41:35.371Z,100.00
2022-11-26T20:43:37.481Z,100.00
2022-11-26T20:45:39.043Z,100.00
2022-11-26T20:47:40.780Z,100.00
2022-11-26T20:49:43.256Z,100.00
2022-11-26T20:51:44.993Z,100.00
2022-11-26T20:53:46.561Z,100.00
2022-11-26T20:55:53.122Z,100.00
2022-11-26T20:57:54.590Z,100.00
2022-11-26T20:59:56.093Z,100.00
2022-11-26T21:01:57.981Z,100.00
2022-11-26T21:03:59.565Z,100.00
2022-11-26T21:06:02.237Z,100.00
2022-11-26T21:08:03.878Z,100.00
2022-11-26T21:10:06.804Z,100.00
2022-11-26T21:12:08.854Z,100.00
2022-11-26T21:14:14.821Z,100.00
2022-11-26T21:16:16.880Z,100.00
2022-11-26T21:18:18.477Z,99.98
2022-11-26T21:20:19.912Z,99.56
2022-11-26T21:22:21.386Z,98.78
2022-11-26T21:24:23.000Z,98.78
2022-11-26T21:26:25.913Z,98.68
2022-11-26T21:28:27.376Z,98.17
2022-11-26T21:30:28.860Z,98.43
2022-11-26T21:32:30.378Z,98.39
2022-11-26T21:34:31.872Z,97.92
2022-11-26T21:36:35.471Z,97.86
2022-11-26T21:38:37.127Z,98.42
2022-11-26T21:40:38.611Z,97.88
2022-11-26T21:42:40.349Z,98.36
2022-11-26T21:44:42.027Z,98.18
2022-11-26T21:46:43.581Z,97.70
2022-11-26T21:48:45.111Z,97.88
2022-11-26T21:50:46.572Z,97.67
2022-11-26T21:52:48.198Z,98.04
2022-11-26T21:54:49.715Z,97.40
2022-11-26T21:56:51.147Z,97.57
2022-11-26T21:58:52.763Z,97.63
2022-11-26T22:00:54.251Z,97.67
2022-11-26T22:02:55.749Z,97.13
2022-11-26T22:04:57.238Z,98.08
2022-11-26T22:06:58.905Z,98.09
2022-11-26T22:09:00.463Z,97.58
2022-11-26T22:11:08.672Z,98.42
2022-11-26T22:13:10.142Z,98.38
2022-11-26T22:15:12.058Z,98.37
2022-11-26T22:17:13.521Z,98.45
2022-11-26T22:19:15.012Z,98.83
2022-11-26T22:21:19.862Z,99.34
2022-11-26T22:23:22.796Z,98.94
2022-11-26T22:25:24.403Z,99.64
2022-11-26T22:27:25.854Z,99.79
2022-11-26T22:29:27.331Z,100.00
2022-11-26T22:31:37.383Z,100.00
2022-11-26T22:33:39.511Z,100.00
2022-11-26T22:35:40.964Z,100.00
2022-11-26T22:37:42.509Z,100.00
2022-11-26T22:39:43.969Z,100.00
2022-11-26T22:41:47.103Z,100.00
2022-11-26T22:43:48.935Z,100.00
2022-11-26T22:45:50.417Z,100.00
2022-11-26T22:47:52.993Z,100.00
2022-11-26T22:49:54.607Z,100.00
2022-11-26T22:51:56.075Z,100.00
2022-11-26T22:53:59.847Z,100.00
2022-11-26T22:56:03.893Z,100.00
2022-11-26T22:58:05.337Z,100.00
2022-11-26T23:00:12.029Z,100.00
2022-11-26T23:02:13.539Z,100.00
2022-11-26T23:04:15.243Z,100.00
2022-11-26T23:06:18.402Z,100.00
2022-11-26T23:08:20.766Z,100.00
2022-11-26T23:10:22.305Z,100.00
2022-11-26T23:12:23.778Z,100.00
2022-11-26T23:14:25.279Z,100.00
2022-11-26T23:16:27.016Z,100.00
2022-11-26T23:18:28.608Z,100.00
2022-11-26T23:20:30.095Z,100.00
2022-11-26T23:22:31.529Z,100.00
2022-11-26T23:24:32.977Z,100.00
2022-11-26T23:26:36.524Z,100.00
2022-11-26T23:28:38.409Z,100.00
2022-11-26T23:30:39.853Z,100.00
2022-11-26T23:32:41.331Z,100.00
2022-11-26T23:34:42.802Z,100.00
2022-11-26T23:36:44.263Z,100.00
2022-11-26T23:38:45.738Z,100.00
2022-11-26T23:40:58.722Z,100.00
2022-11-26T23:43:03.341Z,100.00
2022-11-26T23:45:08.071Z,100.00
2022-11-26T23:47:09.958Z,100.00
2022-11-26T23:49:11.569Z,100.00
2022-11-26T23:51:19.963Z,100.00
2022-11-26T23:53:21.445Z,100.00
2022-11-26T23:55:22.898Z,100.00
2022-11-26T23:57:24.339Z,100.00
2022-11-26T23:59:25.920Z,100.00
